Ville De Bordeaux — FZCE — position and weather

sailwx.info

Track history (hours):
 
Tides and Currents Weather Stations Pressure Air Temp Water Temp Dewpoint Dewpoint Depression Visibility Wind Speed Wind Dir Waves Ship Positions

Ville De Bordeaux

Last reported at 2017-Mar-27 07:20 UTC. Time now 2017-Mar-28 04:16 UTC.
Position N 35°59' W 005°14'.

Length 150 m; beam 24 m.

Type: Ship. MMSI: 228084000.

Date/timePositionNaut miles runAvg speedWind from/ knotsBaromVisibWave heightAir tempDewpointWater temp
2017-Mar-27 07:20N 35°59' W 005°14'268 9.6
2017-Mar-26 03:20N 38°19' W 009°60'1316.9
2017-Mar-26 02:33N 38°32' W 010°04'1716.9
2017-Mar-26 01:33N 38°48' W 010°07'1717.0
2017-Mar-26 00:33N 39°05' W 010°07'  
2017-Mar-23 20:29N 46°58' W 002°41'1314.2
2017-Mar-23 19:33N 47°06' W 002°25'1413.7
2017-Mar-23 18:33N 47°16' W 002°12'2 1.6
2017-Mar-23 17:29N 47°17' W 002°10'0 0.0
2017-Mar-23 16:29N 47°17' W 002°10'0 0.0
2017-Mar-23 15:29N 47°17' W 002°10'0 0.0
2017-Mar-23 14:05N 47°17' W 002°10'0 0.0
2017-Mar-23 12:29N 47°17' W 002°10'0 0.0
2017-Mar-23 09:11N 47°17' W 002°10'0 0.0
2017-Mar-23 06:29N 47°17' W 002°10'0 0.0
2017-Mar-23 05:34N 47°17' W 002°10'1212.0
2017-Mar-23 04:33N 47°08' W 002°22'1514.7
2017-Mar-23 03:32N 46°60' W 002°40'55613.8
2017-Mar-21 11:13N 39°21' W 009°52'1116.0
2017-Mar-21 10:33N 39°10' W 009°52'1615.8
2017-Mar-21 09:33N 38°55' W 009°52'1615.9
2017-Mar-21 08:33N 38°39' W 009°50'1616.0
2017-Mar-21 07:32N 38°23' W 009°45'241 7.7
2017-Mar-20 00:14N 35°57' W 005°43'6 8.5
2017-Mar-19 23:34N 35°58' W 005°36'6 6.4
2017-Mar-19 22:33N 35°54' W 005°30'1 0.5
2017-Mar-19 21:30N 35°53' W 005°30'0 0.0
2017-Mar-19 20:33N 35°53' W 005°30'0 0.0
2017-Mar-19 19:30N 35°53' W 005°30'0 0.0
2017-Mar-19 18:30N 35°53' W 005°30'0 0.0
2017-Mar-19 17:33N 35°53' W 005°30'0 0.2
2017-Mar-19 16:33N 35°54' W 005°30'7 7.0
2017-Mar-19 15:34N 35°60' W 005°26'26615.7
2017-Mar-18 22:33N 36°54' W 000°01'2016.0
2017-Mar-18 21:19N 36°59' E 000°22'5016.4
2017-Mar-18 18:17N 37°12' E 001°23'1215.8
2017-Mar-18 17:33N 37°15' E 001°37'1616.0
2017-Mar-18 16:34N 37°19' E 001°56'1616.1
2017-Mar-18 15:34N 37°23' E 002°16'10016.2
2017-Mar-18 09:23N 37°49' E 004°18'21416.2
2017-Mar-17 20:10N 38°45' E 008°41'1116.5
2017-Mar-17 19:31N 38°48' E 008°54'2116.4
2017-Mar-17 18:13N 38°54' E 009°20'  
Track history (hours):
 
Tides and Currents Weather Stations Pressure Air Temp Water Temp Dewpoint Dewpoint Depression Visibility Wind Speed Wind Dir Waves Ship Positions

Ville De Bordeaux

Last reported at 2017-Mar-27 07:20 UTC. Time now 2017-Mar-28 04:16 UTC.
Position N 35°59' W 005°14'.

Length 150 m; beam 24 m.

Type: Ship. MMSI: 228084000.

Date/timePositionNaut miles runAvg speedWind from/ knotsBaromVisibWave heightAir tempDewpointWater temp
2017-Mar-27 07:20N 35°59' W 005°14'268 9.6
2017-Mar-26 03:20N 38°19' W 009°60'1316.9
2017-Mar-26 02:33N 38°32' W 010°04'1716.9
2017-Mar-26 01:33N 38°48' W 010°07'1717.0
2017-Mar-26 00:33N 39°05' W 010°07'  
2017-Mar-23 20:29N 46°58' W 002°41'1314.2
2017-Mar-23 19:33N 47°06' W 002°25'1413.7
2017-Mar-23 18:33N 47°16' W 002°12'2 1.6
2017-Mar-23 17:29N 47°17' W 002°10'0 0.0
2017-Mar-23 16:29N 47°17' W 002°10'0 0.0
2017-Mar-23 15:29N 47°17' W 002°10'0 0.0
2017-Mar-23 14:05N 47°17' W 002°10'0 0.0
2017-Mar-23 12:29N 47°17' W 002°10'0 0.0
2017-Mar-23 09:11N 47°17' W 002°10'0 0.0
2017-Mar-23 06:29N 47°17' W 002°10'0 0.0
2017-Mar-23 05:34N 47°17' W 002°10'1212.0
2017-Mar-23 04:33N 47°08' W 002°22'1514.7
2017-Mar-23 03:32N 46°60' W 002°40'55613.8
2017-Mar-21 11:13N 39°21' W 009°52'1116.0
2017-Mar-21 10:33N 39°10' W 009°52'1615.8
2017-Mar-21 09:33N 38°55' W 009°52'1615.9
2017-Mar-21 08:33N 38°39' W 009°50'1616.0
2017-Mar-21 07:32N 38°23' W 009°45'241 7.7
2017-Mar-20 00:14N 35°57' W 005°43'6 8.5
2017-Mar-19 23:34N 35°58' W 005°36'6 6.4
2017-Mar-19 22:33N 35°54' W 005°30'1 0.5
2017-Mar-19 21:30N 35°53' W 005°30'0 0.0
2017-Mar-19 20:33N 35°53' W 005°30'0 0.0
2017-Mar-19 19:30N 35°53' W 005°30'0 0.0
2017-Mar-19 18:30N 35°53' W 005°30'0 0.0
2017-Mar-19 17:33N 35°53' W 005°30'0 0.2
2017-Mar-19 16:33N 35°54' W 005°30'7 7.0
2017-Mar-19 15:34N 35°60' W 005°26'26615.7
2017-Mar-18 22:33N 36°54' W 000°01'2016.0
2017-Mar-18 21:19N 36°59' E 000°22'5016.4
2017-Mar-18 18:17N 37°12' E 001°23'1215.8
2017-Mar-18 17:33N 37°15' E 001°37'1616.0
2017-Mar-18 16:34N 37°19' E 001°56'1616.1
2017-Mar-18 15:34N 37°23' E 002°16'10016.2
2017-Mar-18 09:23N 37°49' E 004°18'21416.2
2017-Mar-17 20:10N 38°45' E 008°41'1116.5
2017-Mar-17 19:31N 38°48' E 008°54'2116.4
2017-Mar-17 18:13N 38°54' E 009°20'  

Dump ship's entire track history